sensor_id;sensor_type;location;lat;lon;timestamp;P1;durP1;ratioP1;P2;durP2;ratioP2
47251;SDS011;32991;51.374;11.586;2023-06-26T00:01:02;6.60;;;5.00;;
47251;SDS011;32991;51.374;11.586;2023-06-26T00:03:29;5.47;;;4.40;;
47251;SDS011;32991;51.374;11.586;2023-06-26T00:05:56;7.32;;;5.05;;
47251;SDS011;32991;51.374;11.586;2023-06-26T00:08:27;6.47;;;4.78;;
47251;SDS011;32991;51.374;11.586;2023-06-26T00:10:57;5.78;;;4.88;;
47251;SDS011;32991;51.374;11.586;2023-06-26T00:13:24;6.75;;;4.60;;
47251;SDS011;32991;51.374;11.586;2023-06-26T00:15:51;6.90;;;5.07;;
47251;SDS011;32991;51.374;11.586;2023-06-26T00:18:17;5.90;;;4.95;;
47251;SDS011;32991;51.374;11.586;2023-06-26T00:20:44;6.63;;;5.18;;
47251;SDS011;32991;51.374;11.586;2023-06-26T00:23:11;6.43;;;5.10;;
47251;SDS011;32991;51.374;11.586;2023-06-26T00:25:39;5.55;;;4.95;;
47251;SDS011;32991;51.374;11.586;2023-06-26T00:28:05;5.93;;;5.32;;
47251;SDS011;32991;51.374;11.586;2023-06-26T00:30:32;5.85;;;5.05;;
47251;SDS011;32991;51.374;11.586;2023-06-26T00:32:59;5.95;;;5.32;;
47251;SDS011;32991;51.374;11.586;2023-06-26T00:35:25;6.82;;;5.65;;
47251;SDS011;32991;51.374;11.586;2023-06-26T00:37:52;5.95;;;5.38;;
47251;SDS011;32991;51.374;11.586;2023-06-26T00:40:18;6.93;;;5.95;;
47251;SDS011;32991;51.374;11.586;2023-06-26T00:42:45;6.50;;;5.70;;
47251;SDS011;32991;51.374;11.586;2023-06-26T00:45:13;6.57;;;5.50;;
47251;SDS011;32991;51.374;11.586;2023-06-26T00:47:40;8.85;;;6.20;;
47251;SDS011;32991;51.374;11.586;2023-06-26T00:50:07;6.65;;;5.70;;
47251;SDS011;32991;51.374;11.586;2023-06-26T00:52:34;8.75;;;5.70;;
47251;SDS011;32991;51.374;11.586;2023-06-26T00:55:01;6.35;;;5.68;;
47251;SDS011;32991;51.374;11.586;2023-06-26T00:57:28;8.52;;;6.10;;
47251;SDS011;32991;51.374;11.586;2023-06-26T00:59:56;6.60;;;5.90;;
47251;SDS011;32991;51.374;11.586;2023-06-26T01:02:23;6.82;;;5.70;;
47251;SDS011;32991;51.374;11.586;2023-06-26T01:04:50;6.45;;;5.63;;
47251;SDS011;32991;51.374;11.586;2023-06-26T01:07:18;7.65;;;5.40;;
47251;SDS011;32991;51.374;11.586;2023-06-26T01:09:47;6.55;;;5.32;;
47251;SDS011;32991;51.374;11.586;2023-06-26T01:12:14;5.55;;;5.05;;
47251;SDS011;32991;51.374;11.586;2023-06-26T01:14:41;6.53;;;5.78;;
47251;SDS011;32991;51.374;11.586;2023-06-26T01:17:07;7.70;;;5.80;;
47251;SDS011;32991;51.374;11.586;2023-06-26T01:19:43;6.20;;;5.60;;
47251;SDS011;32991;51.374;11.586;2023-06-26T01:22:28;5.47;;;5.03;;
47251;SDS011;32991;51.374;11.586;2023-06-26T01:25:12;6.95;;;5.82;;
47251;SDS011;32991;51.374;11.586;2023-06-26T01:27:45;7.47;;;6.20;;
47251;SDS011;32991;51.374;11.586;2023-06-26T01:30:13;6.18;;;5.35;;
47251;SDS011;32991;51.374;11.586;2023-06-26T01:32:40;7.72;;;5.50;;
47251;SDS011;32991;51.374;11.586;2023-06-26T01:35:07;6.47;;;5.78;;
47251;SDS011;32991;51.374;11.586;2023-06-26T01:37:34;6.55;;;5.82;;
47251;SDS011;32991;51.374;11.586;2023-06-26T01:40:02;6.25;;;5.65;;
47251;SDS011;32991;51.374;11.586;2023-06-26T01:42:32;5.93;;;5.40;;
47251;SDS011;32991;51.374;11.586;2023-06-26T01:45:02;6.60;;;5.45;;
47251;SDS011;32991;51.374;11.586;2023-06-26T01:47:43;6.32;;;4.82;;
47251;SDS011;32991;51.374;11.586;2023-06-26T01:50:22;8.15;;;6.05;;
47251;SDS011;32991;51.374;11.586;2023-06-26T01:52:53;5.85;;;5.25;;
47251;SDS011;32991;51.374;11.586;2023-06-26T01:55:59;7.60;;;5.22;;
47251;SDS011;32991;51.374;11.586;2023-06-26T01:58:27;7.45;;;5.43;;
47251;SDS011;32991;51.374;11.586;2023-06-26T02:00:54;6.63;;;5.65;;
47251;SDS011;32991;51.374;11.586;2023-06-26T02:03:21;8.15;;;5.88;;
47251;SDS011;32991;51.374;11.586;2023-06-26T02:05:50;7.45;;;5.38;;
47251;SDS011;32991;51.374;11.586;2023-06-26T02:08:18;6.32;;;5.20;;
47251;SDS011;32991;51.374;11.586;2023-06-26T02:10:48;7.35;;;5.32;;
47251;SDS011;32991;51.374;11.586;2023-06-26T02:13:15;9.70;;;5.78;;
47251;SDS011;32991;51.374;11.586;2023-06-26T02:15:42;6.15;;;5.40;;
47251;SDS011;32991;51.374;11.586;2023-06-26T02:18:08;9.43;;;5.32;;
47251;SDS011;32991;51.374;11.586;2023-06-26T02:20:35;5.88;;;5.35;;
47251;SDS011;32991;51.374;11.586;2023-06-26T02:23:02;7.13;;;5.88;;
47251;SDS011;32991;51.374;11.586;2023-06-26T02:25:29;8.60;;;5.47;;
47251;SDS011;32991;51.374;11.586;2023-06-26T02:27:55;6.45;;;5.53;;
47251;SDS011;32991;51.374;11.586;2023-06-26T02:30:22;7.65;;;6.07;;
47251;SDS011;32991;51.374;11.586;2023-06-26T02:32:48;8.80;;;5.47;;
47251;SDS011;32991;51.374;11.586;2023-06-26T02:35:17;7.97;;;5.90;;
47251;SDS011;32991;51.374;11.586;2023-06-26T02:37:44;6.32;;;5.57;;
47251;SDS011;32991;51.374;11.586;2023-06-26T02:40:11;8.60;;;5.70;;
47251;SDS011;32991;51.374;11.586;2023-06-26T02:42:39;6.72;;;5.43;;
47251;SDS011;32991;51.374;11.586;2023-06-26T02:45:06;6.78;;;5.63;;
47251;SDS011;32991;51.374;11.586;2023-06-26T02:47:33;6.80;;;6.20;;
47251;SDS011;32991;51.374;11.586;2023-06-26T02:50:00;6.78;;;5.60;;
47251;SDS011;32991;51.374;11.586;2023-06-26T02:52:35;7.22;;;5.95;;
47251;SDS011;32991;51.374;11.586;2023-06-26T02:55:01;8.73;;;5.82;;
47251;SDS011;32991;51.374;11.586;2023-06-26T02:57:28;10.80;;;6.05;;
47251;SDS011;32991;51.374;11.586;2023-06-26T02:59:56;10.25;;;6.40;;
47251;SDS011;32991;51.374;11.586;2023-06-26T03:02:22;8.05;;;6.22;;
47251;SDS011;32991;51.374;11.586;2023-06-26T03:04:49;7.40;;;6.03;;
47251;SDS011;32991;51.374;11.586;2023-06-26T03:07:16;8.65;;;5.72;;
47251;SDS011;32991;51.374;11.586;2023-06-26T03:09:42;7.85;;;6.90;;
47251;SDS011;32991;51.374;11.586;2023-06-26T03:12:09;8.48;;;6.30;;
47251;SDS011;32991;51.374;11.586;2023-06-26T03:14:36;7.65;;;6.25;;
47251;SDS011;32991;51.374;11.586;2023-06-26T03:17:02;9.45;;;5.18;;
47251;SDS011;32991;51.374;11.586;2023-06-26T03:19:32;11.45;;;7.07;;
47251;SDS011;32991;51.374;11.586;2023-06-26T03:22:14;11.55;;;6.78;;
47251;SDS011;32991;51.374;11.586;2023-06-26T03:24:41;9.88;;;6.32;;
47251;SDS011;32991;51.374;11.586;2023-06-26T03:27:08;10.98;;;6.93;;
47251;SDS011;32991;51.374;11.586;2023-06-26T03:29:36;8.45;;;6.47;;
47251;SDS011;32991;51.374;11.586;2023-06-26T03:32:02;8.50;;;7.00;;
47251;SDS011;32991;51.374;11.586;2023-06-26T03:34:29;7.32;;;6.60;;
47251;SDS011;32991;51.374;11.586;2023-06-26T03:36:56;7.25;;;6.25;;
47251;SDS011;32991;51.374;11.586;2023-06-26T03:39:22;8.40;;;6.22;;
47251;SDS011;32991;51.374;11.586;2023-06-26T03:41:49;10.48;;;6.57;;
47251;SDS011;32991;51.374;11.586;2023-06-26T03:44:16;6.50;;;5.78;;
47251;SDS011;32991;51.374;11.586;2023-06-26T03:46:46;9.65;;;5.90;;
47251;SDS011;32991;51.374;11.586;2023-06-26T03:49:13;8.10;;;5.90;;
47251;SDS011;32991;51.374;11.586;2023-06-26T03:51:40;7.00;;;5.85;;
47251;SDS011;32991;51.374;11.586;2023-06-26T03:54:06;7.00;;;6.30;;
47251;SDS011;32991;51.374;11.586;2023-06-26T03:56:33;6.72;;;6.00;;
47251;SDS011;32991;51.374;11.586;2023-06-26T03:59:00;7.70;;;5.55;;
47251;SDS011;32991;51.374;11.586;2023-06-26T04:01:26;7.28;;;6.53;;
47251;SDS011;32991;51.374;11.586;2023-06-26T04:03:54;7.18;;;6.35;;
47251;SDS011;32991;51.374;11.586;2023-06-26T04:06:20;7.57;;;6.88;;
47251;SDS011;32991;51.374;11.586;2023-06-26T04:08:47;9.15;;;7.00;;
47251;SDS011;32991;51.374;11.586;2023-06-26T04:11:15;7.68;;;6.75;;
47251;SDS011;32991;51.374;11.586;2023-06-26T04:13:41;7.60;;;6.70;;
47251;SDS011;32991;51.374;11.586;2023-06-26T04:16:08;9.93;;;6.50;;
47251;SDS011;32991;51.374;11.586;2023-06-26T04:18:34;7.50;;;5.93;;
47251;SDS011;32991;51.374;11.586;2023-06-26T04:21:11;9.20;;;6.32;;
47251;SDS011;32991;51.374;11.586;2023-06-26T04:23:39;7.75;;;7.05;;
47251;SDS011;32991;51.374;11.586;2023-06-26T04:26:06;7.60;;;6.13;;
47251;SDS011;32991;51.374;11.586;2023-06-26T04:28:33;8.27;;;6.72;;
47251;SDS011;32991;51.374;11.586;2023-06-26T04:31:01;12.30;;;7.30;;
47251;SDS011;32991;51.374;11.586;2023-06-26T04:33:27;9.13;;;8.07;;
47251;SDS011;32991;51.374;11.586;2023-06-26T04:35:54;9.77;;;7.50;;
47251;SDS011;32991;51.374;11.586;2023-06-26T04:38:20;10.73;;;7.78;;
47251;SDS011;32991;51.374;11.586;2023-06-26T04:40:48;9.93;;;7.75;;
47251;SDS011;32991;51.374;11.586;2023-06-26T04:43:14;8.82;;;7.40;;
47251;SDS011;32991;51.374;11.586;2023-06-26T04:45:41;9.82;;;7.03;;
47251;SDS011;32991;51.374;11.586;2023-06-26T04:48:08;10.07;;;7.20;;
47251;SDS011;32991;51.374;11.586;2023-06-26T04:50:35;9.48;;;7.05;;
47251;SDS011;32991;51.374;11.586;2023-06-26T04:53:02;9.57;;;6.57;;
47251;SDS011;32991;51.374;11.586;2023-06-26T04:55:29;11.30;;;6.35;;
47251;SDS011;32991;51.374;11.586;2023-06-26T04:57:56;9.13;;;6.65;;
47251;SDS011;32991;51.374;11.586;2023-06-26T05:00:23;6.88;;;6.18;;
47251;SDS011;32991;51.374;11.586;2023-06-26T05:02:51;8.02;;;6.20;;
47251;SDS011;32991;51.374;11.586;2023-06-26T05:05:27;7.15;;;5.70;;
47251;SDS011;32991;51.374;11.586;2023-06-26T05:07:55;6.38;;;5.70;;
47251;SDS011;32991;51.374;11.586;2023-06-26T05:10:22;9.40;;;5.57;;
47251;SDS011;32991;51.374;11.586;2023-06-26T05:12:49;18.23;;;5.95;;
47251;SDS011;32991;51.374;11.586;2023-06-26T05:15:15;7.47;;;5.50;;
47251;SDS011;32991;51.374;11.586;2023-06-26T05:17:42;8.13;;;5.85;;
47251;SDS011;32991;51.374;11.586;2023-06-26T05:20:09;10.85;;;5.90;;
47251;SDS011;32991;51.374;11.586;2023-06-26T05:22:36;6.75;;;5.05;;
47251;SDS011;32991;51.374;11.586;2023-06-26T05:25:05;7.97;;;5.72;;
47251;SDS011;32991;51.374;11.586;2023-06-26T05:27:34;6.97;;;5.30;;
47251;SDS011;32991;51.374;11.586;2023-06-26T05:30:01;6.72;;;4.95;;
47251;SDS011;32991;51.374;11.586;2023-06-26T05:32:28;7.72;;;5.43;;
47251;SDS011;32991;51.374;11.586;2023-06-26T05:34:56;6.68;;;5.55;;
47251;SDS011;32991;51.374;11.586;2023-06-26T05:37:25;5.82;;;4.75;;
47251;SDS011;32991;51.374;11.586;2023-06-26T05:39:52;5.40;;;4.55;;
47251;SDS011;32991;51.374;11.586;2023-06-26T05:42:19;4.72;;;4.32;;
47251;SDS011;32991;51.374;11.586;2023-06-26T05:44:46;6.57;;;4.60;;
47251;SDS011;32991;51.374;11.586;2023-06-26T05:47:13;7.75;;;4.72;;
47251;SDS011;32991;51.374;11.586;2023-06-26T05:49:39;6.43;;;4.65;;
47251;SDS011;32991;51.374;11.586;2023-06-26T05:52:06;5.20;;;4.70;;
47251;SDS011;32991;51.374;11.586;2023-06-26T05:54:33;7.13;;;4.72;;
47251;SDS011;32991;51.374;11.586;2023-06-26T05:57:00;6.50;;;4.43;;
47251;SDS011;32991;51.374;11.586;2023-06-26T05:59:27;5.15;;;4.20;;
47251;SDS011;32991;51.374;11.586;2023-06-26T06:01:53;6.72;;;4.05;;
47251;SDS011;32991;51.374;11.586;2023-06-26T06:04:20;6.45;;;4.13;;
47251;SDS011;32991;51.374;11.586;2023-06-26T06:06:47;6.63;;;4.10;;
47251;SDS011;32991;51.374;11.586;2023-06-26T06:09:13;6.28;;;4.25;;
47251;SDS011;32991;51.374;11.586;2023-06-26T06:11:40;4.82;;;3.75;;
47251;SDS011;32991;51.374;11.586;2023-06-26T06:14:07;5.30;;;4.05;;
47251;SDS011;32991;51.374;11.586;2023-06-26T06:16:33;4.68;;;4.00;;
47251;SDS011;32991;51.374;11.586;2023-06-26T06:19:00;4.68;;;3.85;;
47251;SDS011;32991;51.374;11.586;2023-06-26T06:21:27;5.82;;;3.70;;
47251;SDS011;32991;51.374;11.586;2023-06-26T06:23:53;5.30;;;4.05;;
47251;SDS011;32991;51.374;11.586;2023-06-26T06:26:20;5.30;;;3.22;;
47251;SDS011;32991;51.374;11.586;2023-06-26T06:28:46;8.52;;;3.83;;
47251;SDS011;32991;51.374;11.586;2023-06-26T06:31:13;3.85;;;3.55;;
47251;SDS011;32991;51.374;11.586;2023-06-26T06:33:39;6.55;;;4.10;;
47251;SDS011;32991;51.374;11.586;2023-06-26T06:36:06;4.13;;;3.33;;
47251;SDS011;32991;51.374;11.586;2023-06-26T06:38:32;7.80;;;3.70;;
47251;SDS011;32991;51.374;11.586;2023-06-26T06:40:59;6.10;;;4.03;;
47251;SDS011;32991;51.374;11.586;2023-06-26T06:43:26;8.35;;;4.18;;
47251;SDS011;32991;51.374;11.586;2023-06-26T06:45:52;4.50;;;4.05;;
47251;SDS011;32991;51.374;11.586;2023-06-26T06:48:19;4.35;;;3.95;;
47251;SDS011;32991;51.374;11.586;2023-06-26T06:50:45;5.85;;;4.10;;
47251;SDS011;32991;51.374;11.586;2023-06-26T06:53:12;6.40;;;4.00;;
47251;SDS011;32991;51.374;11.586;2023-06-26T06:55:39;6.03;;;4.35;;
47251;SDS011;32991;51.374;11.586;2023-06-26T06:58:05;5.05;;;4.55;;
47251;SDS011;32991;51.374;11.586;2023-06-26T07:00:32;7.78;;;4.35;;
47251;SDS011;32991;51.374;11.586;2023-06-26T07:02:59;4.05;;;3.70;;
47251;SDS011;32991;51.374;11.586;2023-06-26T07:05:26;5.22;;;4.15;;
47251;SDS011;32991;51.374;11.586;2023-06-26T07:07:53;7.10;;;3.97;;
47251;SDS011;32991;51.374;11.586;2023-06-26T07:10:20;5.10;;;3.40;;
47251;SDS011;32991;51.374;11.586;2023-06-26T07:12:46;7.00;;;3.92;;
47251;SDS011;32991;51.374;11.586;2023-06-26T07:15:13;5.55;;;3.67;;
47251;SDS011;32991;51.374;11.586;2023-06-26T07:17:40;4.28;;;3.88;;
47251;SDS011;32991;51.374;11.586;2023-06-26T07:20:06;4.20;;;3.72;;
47251;SDS011;32991;51.374;11.586;2023-06-26T07:22:35;5.53;;;3.80;;
47251;SDS011;32991;51.374;11.586;2023-06-26T07:25:02;4.63;;;4.10;;
47251;SDS011;32991;51.374;11.586;2023-06-26T07:27:30;5.65;;;4.20;;
47251;SDS011;32991;51.374;11.586;2023-06-26T07:29:57;5.97;;;4.45;;
47251;SDS011;32991;51.374;11.586;2023-06-26T07:32:23;6.40;;;4.25;;
47251;SDS011;32991;51.374;11.586;2023-06-26T07:34:50;4.80;;;4.07;;
47251;SDS011;32991;51.374;11.586;2023-06-26T07:37:17;6.13;;;3.80;;
47251;SDS011;32991;51.374;11.586;2023-06-26T07:39:43;4.80;;;4.38;;
47251;SDS011;32991;51.374;11.586;2023-06-26T07:42:10;4.82;;;3.60;;
47251;SDS011;32991;51.374;11.586;2023-06-26T07:44:37;6.65;;;4.05;;
47251;SDS011;32991;51.374;11.586;2023-06-26T07:47:04;5.75;;;4.10;;
47251;SDS011;32991;51.374;11.586;2023-06-26T07:49:31;4.65;;;4.25;;
47251;SDS011;32991;51.374;11.586;2023-06-26T07:51:57;4.60;;;4.20;;
47251;SDS011;32991;51.374;11.586;2023-06-26T07:54:24;4.38;;;3.90;;
47251;SDS011;32991;51.374;11.586;2023-06-26T07:56:54;6.57;;;4.35;;
47251;SDS011;32991;51.374;11.586;2023-06-26T07:59:25;4.10;;;3.80;;
47251;SDS011;32991;51.374;11.586;2023-06-26T08:01:52;6.15;;;4.38;;
47251;SDS011;32991;51.374;11.586;2023-06-26T08:04:21;5.60;;;4.30;;
47251;SDS011;32991;51.374;11.586;2023-06-26T08:06:50;4.72;;;4.30;;
47251;SDS011;32991;51.374;11.586;2023-06-26T08:09:19;4.80;;;3.95;;
47251;SDS011;32991;51.374;11.586;2023-06-26T08:11:49;4.70;;;4.30;;
47251;SDS011;32991;51.374;11.586;2023-06-26T08:14:16;4.47;;;4.07;;
47251;SDS011;32991;51.374;11.586;2023-06-26T08:16:43;5.85;;;3.95;;
47251;SDS011;32991;51.374;11.586;2023-06-26T08:19:13;5.60;;;3.83;;
47251;SDS011;32991;51.374;11.586;2023-06-26T08:21:40;6.03;;;3.97;;
47251;SDS011;32991;51.374;11.586;2023-06-26T08:24:07;6.57;;;4.55;;
47251;SDS011;32991;51.374;11.586;2023-06-26T08:26:34;4.32;;;3.92;;
47251;SDS011;32991;51.374;11.586;2023-06-26T08:29:02;6.50;;;3.80;;
47251;SDS011;32991;51.374;11.586;2023-06-26T08:31:38;6.32;;;3.85;;
47251;SDS011;32991;51.374;11.586;2023-06-26T08:34:05;5.28;;;3.85;;
47251;SDS011;32991;51.374;11.586;2023-06-26T08:36:32;4.57;;;4.18;;
47251;SDS011;32991;51.374;11.586;2023-06-26T08:38:59;5.22;;;4.20;;
47251;SDS011;32991;51.374;11.586;2023-06-26T08:41:26;4.05;;;3.75;;
47251;SDS011;32991;51.374;11.586;2023-06-26T08:43:58;4.32;;;3.83;;
47251;SDS011;32991;51.374;11.586;2023-06-26T08:46:24;4.50;;;4.10;;
47251;SDS011;32991;51.374;11.586;2023-06-26T08:48:55;4.00;;;3.70;;
47251;SDS011;32991;51.374;11.586;2023-06-26T08:51:29;4.90;;;3.85;;
47251;SDS011;32991;51.374;11.586;2023-06-26T08:54:00;4.65;;;3.90;;
47251;SDS011;32991;51.374;11.586;2023-06-26T08:56:28;4.25;;;3.45;;
47251;SDS011;32991;51.374;11.586;2023-06-26T08:59:02;4.10;;;3.72;;
47251;SDS011;32991;51.374;11.586;2023-06-26T09:01:28;4.30;;;3.90;;
47251;SDS011;32991;51.374;11.586;2023-06-26T09:03:55;5.28;;;3.47;;
47251;SDS011;32991;51.374;11.586;2023-06-26T09:06:22;4.03;;;3.72;;
47251;SDS011;32991;51.374;11.586;2023-06-26T09:08:48;4.40;;;3.70;;
47251;SDS011;32991;51.374;11.586;2023-06-26T09:11:15;4.72;;;3.83;;
47251;SDS011;32991;51.374;11.586;2023-06-26T09:13:42;4.03;;;3.72;;
47251;SDS011;32991;51.374;11.586;2023-06-26T09:16:09;4.15;;;3.40;;
47251;SDS011;32991;51.374;11.586;2023-06-26T09:18:35;4.20;;;3.88;;
47251;SDS011;32991;51.374;11.586;2023-06-26T09:21:09;4.72;;;4.07;;
47251;SDS011;32991;51.374;11.586;2023-06-26T09:23:36;4.35;;;3.95;;
47251;SDS011;32991;51.374;11.586;2023-06-26T09:26:03;4.40;;;4.00;;
47251;SDS011;32991;51.374;11.586;2023-06-26T09:28:31;3.92;;;3.63;;
47251;SDS011;32991;51.374;11.586;2023-06-26T09:31:02;3.80;;;3.50;;
47251;SDS011;32991;51.374;11.586;2023-06-26T09:33:38;4.68;;;3.60;;
47251;SDS011;32991;51.374;11.586;2023-06-26T09:36:05;5.68;;;4.18;;
47251;SDS011;32991;51.374;11.586;2023-06-26T09:38:34;4.40;;;4.00;;
47251;SDS011;32991;51.374;11.586;2023-06-26T09:41:02;5.13;;;4.32;;
47251;SDS011;32991;51.374;11.586;2023-06-26T09:43:29;6.63;;;3.95;;
47251;SDS011;32991;51.374;11.586;2023-06-26T09:45:57;4.35;;;3.95;;
47251;SDS011;32991;51.374;11.586;2023-06-26T09:48:24;4.60;;;4.20;;
47251;SDS011;32991;51.374;11.586;2023-06-26T11:38:00;4.45;;;4.05;;
47251;SDS011;32991;51.374;11.586;2023-06-26T11:40:32;4.68;;;4.13;;
47251;SDS011;32991;51.374;11.586;2023-06-26T11:42:59;4.97;;;4.20;;
47251;SDS011;32991;51.374;11.586;2023-06-26T11:45:32;4.13;;;3.80;;
47251;SDS011;32991;51.374;11.586;2023-06-26T11:47:59;5.85;;;4.03;;
47251;SDS011;32991;51.374;11.586;2023-06-26T11:50:27;5.65;;;3.92;;
47251;SDS011;32991;51.374;11.586;2023-06-26T11:52:54;6.95;;;4.25;;
47251;SDS011;32991;51.374;11.586;2023-06-26T11:55:25;4.30;;;4.00;;
47251;SDS011;32991;51.374;11.586;2023-06-26T11:57:56;7.47;;;3.97;;
47251;SDS011;32991;51.374;11.586;2023-06-26T12:00:23;4.93;;;4.13;;
47251;SDS011;32991;51.374;11.586;2023-06-26T12:02:49;4.93;;;4.38;;
47251;SDS011;32991;51.374;11.586;2023-06-26T12:05:18;4.43;;;4.13;;
47251;SDS011;32991;51.374;11.586;2023-06-26T12:07:48;6.50;;;4.25;;
47251;SDS011;32991;51.374;11.586;2023-06-26T12:10:15;5.88;;;4.13;;
47251;SDS011;32991;51.374;11.586;2023-06-26T12:12:45;4.70;;;4.30;;
47251;SDS011;32991;51.374;11.586;2023-06-26T12:15:13;4.20;;;3.90;;
47251;SDS011;32991;51.374;11.586;2023-06-26T12:17:41;4.70;;;4.30;;
47251;SDS011;32991;51.374;11.586;2023-06-26T12:20:22;4.05;;;3.75;;
47251;SDS011;32991;51.374;11.586;2023-06-26T12:22:49;5.38;;;4.35;;
47251;SDS011;32991;51.374;11.586;2023-06-26T12:25:20;4.57;;;4.18;;
47251;SDS011;32991;51.374;11.586;2023-06-26T12:27:49;4.85;;;4.40;;
47251;SDS011;32991;51.374;11.586;2023-06-26T12:30:16;4.90;;;4.38;;
47251;SDS011;32991;51.374;11.586;2023-06-26T12:32:46;5.60;;;4.72;;
47251;SDS011;32991;51.374;11.586;2023-06-26T12:35:15;4.88;;;4.40;;
47251;SDS011;32991;51.374;11.586;2023-06-26T12:37:42;6.22;;;4.30;;
47251;SDS011;32991;51.374;11.586;2023-06-26T12:40:17;5.95;;;4.40;;
47251;SDS011;32991;51.374;11.586;2023-06-26T12:42:50;5.07;;;4.68;;
47251;SDS011;32991;51.374;11.586;2023-06-26T12:45:18;6.07;;;4.70;;
47251;SDS011;32991;51.374;11.586;2023-06-26T12:47:49;4.65;;;4.15;;
47251;SDS011;32991;51.374;11.586;2023-06-26T12:50:15;4.88;;;4.47;;
47251;SDS011;32991;51.374;11.586;2023-06-26T12:52:43;4.47;;;4.07;;
47251;SDS011;32991;51.374;11.586;2023-06-26T12:55:10;4.72;;;4.32;;
47251;SDS011;32991;51.374;11.586;2023-06-26T12:57:36;5.45;;;4.30;;
47251;SDS011;32991;51.374;11.586;2023-06-26T13:00:03;5.28;;;4.80;;
47251;SDS011;32991;51.374;11.586;2023-06-26T13:02:30;5.03;;;4.43;;
47251;SDS011;32991;51.374;11.586;2023-06-26T13:04:56;6.03;;;4.45;;
47251;SDS011;32991;51.374;11.586;2023-06-26T13:07:23;12.48;;;5.05;;
47251;SDS011;32991;51.374;11.586;2023-06-26T13:09:52;9.40;;;5.78;;
47251;SDS011;32991;51.374;11.586;2023-06-26T13:12:18;14.02;;;6.80;;
47251;SDS011;32991;51.374;11.586;2023-06-26T13:14:45;15.30;;;7.35;;
47251;SDS011;32991;51.374;11.586;2023-06-26T13:17:11;9.40;;;6.60;;
47251;SDS011;32991;51.374;11.586;2023-06-26T13:19:38;11.10;;;6.72;;
47251;SDS011;32991;51.374;11.586;2023-06-26T13:22:05;11.27;;;7.20;;
47251;SDS011;32991;51.374;11.586;2023-06-26T13:24:32;9.73;;;7.32;;
47251;SDS011;32991;51.374;11.586;2023-06-26T13:26:58;9.13;;;7.40;;
47251;SDS011;32991;51.374;11.586;2023-06-26T13:29:25;15.45;;;7.72;;
47251;SDS011;32991;51.374;11.586;2023-06-26T13:31:52;10.55;;;6.93;;
47251;SDS011;32991;51.374;11.586;2023-06-26T13:34:23;11.43;;;6.90;;
47251;SDS011;32991;51.374;11.586;2023-06-26T13:36:50;11.32;;;6.60;;
47251;SDS011;32991;51.374;11.586;2023-06-26T13:39:17;7.28;;;6.57;;
47251;SDS011;32991;51.374;11.586;2023-06-26T13:41:44;9.27;;;6.10;;
47251;SDS011;32991;51.374;11.586;2023-06-26T13:44:10;9.48;;;6.70;;
47251;SDS011;32991;51.374;11.586;2023-06-26T13:46:52;7.97;;;6.30;;
47251;SDS011;32991;51.374;11.586;2023-06-26T13:49:19;14.05;;;6.03;;
47251;SDS011;32991;51.374;11.586;2023-06-26T13:51:46;8.57;;;6.47;;
47251;SDS011;32991;51.374;11.586;2023-06-26T13:54:14;6.45;;;5.85;;
47251;SDS011;32991;51.374;11.586;2023-06-26T13:56:41;8.48;;;6.43;;
47251;SDS011;32991;51.374;11.586;2023-06-26T13:59:07;12.80;;;6.60;;
47251;SDS011;32991;51.374;11.586;2023-06-26T14:01:34;7.25;;;6.25;;
47251;SDS011;32991;51.374;11.586;2023-06-26T14:04:00;10.45;;;6.43;;
47251;SDS011;32991;51.374;11.586;2023-06-26T14:06:27;12.80;;;6.13;;
47251;SDS011;32991;51.374;11.586;2023-06-26T14:08:53;9.68;;;6.22;;
47251;SDS011;32991;51.374;11.586;2023-06-26T14:11:20;8.30;;;6.70;;
47251;SDS011;32991;51.374;11.586;2023-06-26T14:13:48;7.28;;;6.15;;
47251;SDS011;32991;51.374;11.586;2023-06-26T14:16:15;8.55;;;6.82;;
47251;SDS011;32991;51.374;11.586;2023-06-26T14:18:45;7.18;;;6.47;;
47251;SDS011;32991;51.374;11.586;2023-06-26T14:21:11;8.63;;;5.78;;
47251;SDS011;32991;51.374;11.586;2023-06-26T14:23:38;6.43;;;5.82;;
47251;SDS011;32991;51.374;11.586;2023-06-26T14:26:04;8.25;;;5.50;;
47251;SDS011;32991;51.374;11.586;2023-06-26T14:28:31;6.57;;;5.43;;
47251;SDS011;32991;51.374;11.586;2023-06-26T14:30:58;11.35;;;6.18;;
47251;SDS011;32991;51.374;11.586;2023-06-26T14:33:24;5.88;;;5.20;;
47251;SDS011;32991;51.374;11.586;2023-06-26T14:35:51;5.43;;;4.82;;
47251;SDS011;32991;51.374;11.586;2023-06-26T14:38:17;4.80;;;4.40;;
47251;SDS011;32991;51.374;11.586;2023-06-26T14:40:44;5.60;;;4.95;;
47251;SDS011;32991;51.374;11.586;2023-06-26T14:43:11;6.43;;;4.75;;
47251;SDS011;32991;51.374;11.586;2023-06-26T14:45:38;5.57;;;4.78;;
47251;SDS011;32991;51.374;11.586;2023-06-26T14:48:05;5.45;;;4.90;;
47251;SDS011;32991;51.374;11.586;2023-06-26T14:50:32;5.95;;;5.45;;
47251;SDS011;32991;51.374;11.586;2023-06-26T14:52:58;5.45;;;4.95;;
47251;SDS011;32991;51.374;11.586;2023-06-26T14:55:25;9.38;;;4.95;;
47251;SDS011;32991;51.374;11.586;2023-06-26T14:57:52;7.75;;;5.10;;
47251;SDS011;32991;51.374;11.586;2023-06-26T15:00:18;6.72;;;5.50;;
47251;SDS011;32991;51.374;11.586;2023-06-26T15:02:45;6.40;;;5.05;;
47251;SDS011;32991;51.374;11.586;2023-06-26T15:05:12;6.38;;;5.28;;
47251;SDS011;32991;51.374;11.586;2023-06-26T15:07:39;5.85;;;5.25;;
47251;SDS011;32991;51.374;11.586;2023-06-26T15:10:06;6.65;;;5.38;;
47251;SDS011;32991;51.374;11.586;2023-06-26T15:12:34;6.72;;;5.68;;
47251;SDS011;32991;51.374;11.586;2023-06-26T15:15:00;7.43;;;5.13;;
47251;SDS011;32991;51.374;11.586;2023-06-26T15:17:27;8.60;;;5.45;;
47251;SDS011;32991;51.374;11.586;2023-06-26T15:19:53;7.45;;;5.45;;
47251;SDS011;32991;51.374;11.586;2023-06-26T15:22:22;6.95;;;5.90;;
47251;SDS011;32991;51.374;11.586;2023-06-26T15:24:48;7.75;;;6.20;;
47251;SDS011;32991;51.374;11.586;2023-06-26T15:27:15;7.78;;;5.55;;
47251;SDS011;32991;51.374;11.586;2023-06-26T15:29:42;6.20;;;5.60;;
47251;SDS011;32991;51.374;11.586;2023-06-26T15:32:09;7.63;;;5.88;;
47251;SDS011;32991;51.374;11.586;2023-06-26T15:34:36;7.35;;;5.38;;
47251;SDS011;32991;51.374;11.586;2023-06-26T15:37:02;7.78;;;5.88;;
47251;SDS011;32991;51.374;11.586;2023-06-26T15:39:29;7.47;;;5.93;;
47251;SDS011;32991;51.374;11.586;2023-06-26T15:41:56;8.82;;;6.50;;
47251;SDS011;32991;51.374;11.586;2023-06-26T15:44:22;10.07;;;6.05;;
47251;SDS011;32991;51.374;11.586;2023-06-26T15:46:49;7.20;;;6.50;;
47251;SDS011;32991;51.374;11.586;2023-06-26T15:49:15;8.35;;;6.90;;
47251;SDS011;32991;51.374;11.586;2023-06-26T15:51:42;11.23;;;6.75;;
47251;SDS011;32991;51.374;11.586;2023-06-26T15:54:11;9.40;;;7.35;;
47251;SDS011;32991;51.374;11.586;2023-06-26T15:56:38;10.73;;;7.20;;
47251;SDS011;32991;51.374;11.586;2023-06-26T15:59:04;11.45;;;6.75;;
47251;SDS011;32991;51.374;11.586;2023-06-26T16:01:31;11.52;;;6.88;;
47251;SDS011;32991;51.374;11.586;2023-06-26T16:03:57;13.20;;;8.00;;
47251;SDS011;32991;51.374;11.586;2023-06-26T16:06:24;8.23;;;6.57;;
47251;SDS011;32991;51.374;11.586;2023-06-26T16:08:51;8.75;;;6.28;;
47251;SDS011;32991;51.374;11.586;2023-06-26T16:11:19;11.60;;;7.00;;
47251;SDS011;32991;51.374;11.586;2023-06-26T16:13:45;13.90;;;6.50;;
47251;SDS011;32991;51.374;11.586;2023-06-26T16:16:13;11.13;;;7.03;;
47251;SDS011;32991;51.374;11.586;2023-06-26T16:18:40;9.35;;;6.03;;
47251;SDS011;32991;51.374;11.586;2023-06-26T16:21:07;14.57;;;6.53;;
47251;SDS011;32991;51.374;11.586;2023-06-26T16:23:33;8.45;;;5.60;;